Time;durP1;ratioP1;P1;durP2;ratioP2;P2;SDS_P1;SDS_P2;PMS_P1;PMS_P2;Temp;Humidity;BMP_temperature;BMP_pressure;BME280_temperature;BME280_humidity;BME280_pressure;Samples;Min_cycle;Max_cycle;Signal;HPM_P1;HPM_P2
2022/11/29 00:01:34;;;;;;;;;;;21.30;89.70;;;;;;5096495;28;19912;-49
2022/11/29 00:04:00;;;;;;;;;;;21.20;89.90;;;;;;5096915;28;19915;-49
2022/11/29 00:06:27;;;;;;;;;;;21.20;89.80;;;;;;5096985;28;20303;-51
2022/11/29 00:08:57;;;;;;;;;;;21.20;89.70;;;;;;5087516;28;19912;-49
2022/11/29 00:14:10;;;;;;;;;;;21.20;89.70;;;;;;5097220;28;19935;-50
2022/11/29 00:16:36;;;;;;;;;;;21.20;89.80;;;;;;5085368;28;19912;-47
2022/11/29 00:19:01;;;;;;;;;;;21.20;89.60;;;;;;5096525;28;19966;-47
2022/11/29 00:21:27;;;;;;;;;;;21.20;89.70;;;;;;5095798;28;20007;-50
2022/11/29 00:23:53;;;;;;;;;;;21.20;89.70;;;;;;5096731;28;19915;-50
2022/11/29 00:26:19;;;;;;;;;;;21.20;89.50;;;;;;5095364;28;19915;-49
2022/11/29 00:28:44;;;;;;;;;;;21.20;89.50;;;;;;5096005;28;19908;-50
2022/11/29 00:31:13;;;;;;;;;;;21.20;89.20;;;;;;5096528;28;20010;-49
2022/11/29 00:33:39;;;;;;;;;;;21.20;89.60;;;;;;5093851;28;19954;-49
2022/11/29 00:36:05;;;;;;;;;;;21.20;89.60;;;;;;5095355;28;19915;-50
2022/11/29 00:38:30;;;;;;;;;;;21.20;89.60;;;;;;5095208;28;19951;-49
2022/11/29 00:40:56;;;;;;;;;;;21.30;89.70;;;;;;5096443;28;19904;-50
2022/11/29 00:43:21;;;;;;;;;;;21.20;89.80;;;;;;5076167;28;19920;-48
2022/11/29 00:45:46;;;;;;;;;;;21.20;89.80;;;;;;5096358;28;19911;-51
2022/11/29 00:48:12;;;;;;;;;;;21.30;89.80;;;;;;5096259;28;19908;-50
2022/11/29 00:50:37;;;;;;;;;;;21.20;89.80;;;;;;5096248;28;19920;-49
2022/11/29 00:53:03;;;;;;;;;;;21.20;89.70;;;;;;5094512;28;20373;-50
2022/11/29 00:55:28;;;;;;;;;;;21.20;89.80;;;;;;5095621;28;19915;-50
2022/11/29 00:57:54;;;;;;;;;;;21.20;89.80;;;;;;5096041;28;19908;-51
2022/11/29 01:00:19;;;;;;;;;;;21.20;89.70;;;;;;5096027;28;19904;-50
2022/11/29 01:02:45;;;;;;;;;;;21.20;90.10;;;;;;5096347;28;19938;-49
2022/11/29 01:05:10;;;;;;;;;;;21.20;89.80;;;;;;5091333;28;19919;-50
2022/11/29 01:07:36;;;;;;;;;;;21.20;89.80;;;;;;5095479;28;19912;-51
2022/11/29 01:10:02;;;;;;;;;;;21.20;89.60;;;;;;5095981;28;20404;-50
2022/11/29 01:12:27;;;;;;;;;;;21.20;89.60;;;;;;5095476;28;19916;-51
2022/11/29 01:14:53;;;;;;;;;;;21.20;89.60;;;;;;5095025;28;19938;-51
2022/11/29 01:17:18;;;;;;;;;;;21.20;89.40;;;;;;5095674;28;19908;-47
2022/11/29 01:19:44;;;;;;;;;;;21.20;90.00;;;;;;5095306;28;20347;-48
2022/11/29 01:22:09;;;;;;;;;;;21.20;89.40;;;;;;5093227;28;20375;-50
2022/11/29 01:24:34;;;;;;;;;;;21.20;89.50;;;;;;5091607;28;19920;-47
2022/11/29 01:27:00;;;;;;;;;;;21.20;89.60;;;;;;5093206;28;20003;-49
2022/11/29 01:29:25;;;;;;;;;;;21.20;89.70;;;;;;5093200;28;20371;-52
2022/11/29 01:31:51;;;;;;;;;;;21.20;89.70;;;;;;5093351;28;19939;-48
2022/11/29 01:34:16;;;;;;;;;;;21.20;89.70;;;;;;5092367;28;19935;-54
2022/11/29 01:36:42;;;;;;;;;;;21.20;89.70;;;;;;5092703;28;19915;-50
2022/11/29 01:39:07;;;;;;;;;;;21.20;89.80;;;;;;5095063;28;19908;-48
2022/11/29 01:41:33;;;;;;;;;;;21.20;89.80;;;;;;5094545;28;20351;-49
2022/11/29 01:44:01;;;;;;;;;;;21.10;89.70;;;;;;5094588;28;20252;-50
2022/11/29 01:46:31;;;;;;;;;;;21.20;89.70;;;;;;5076444;28;19965;-51
2022/11/29 01:49:02;;;;;;;;;;;21.10;89.70;;;;;;5095000;28;19966;-47
2022/11/29 01:51:28;;;;;;;;;;;21.10;89.70;;;;;;5094659;28;19916;-48
2022/11/29 01:53:54;;;;;;;;;;;21.10;89.60;;;;;;5094211;28;19912;-50
2022/11/29 01:56:19;;;;;;;;;;;21.10;89.60;;;;;;5095281;28;19981;-51
2022/11/29 01:58:45;;;;;;;;;;;21.10;89.70;;;;;;5094844;28;19995;-50
2022/11/29 02:01:11;;;;;;;;;;;21.10;89.60;;;;;;5094611;28;19908;-49
2022/11/29 02:03:36;;;;;;;;;;;21.10;89.50;;;;;;5075879;28;20366;-50
2022/11/29 02:06:03;;;;;;;;;;;21.10;89.50;;;;;;5094814;28;19908;-51
2022/11/29 02:08:32;;;;;;;;;;;21.10;89.40;;;;;;5094538;28;19923;-50
2022/11/29 02:11:00;;;;;;;;;;;21.10;89.60;;;;;;5094181;28;19920;-51
2022/11/29 02:13:31;;;;;;;;;;;21.10;89.50;;;;;;5075833;28;19931;-48
2022/11/29 02:16:05;;;;;;;;;;;21.10;89.50;;;;;;5094773;28;19994;-49
2022/11/29 02:18:50;;;;;;;;;;;21.10;89.40;;;;;;5094740;28;19908;-47
2022/11/29 02:21:26;;;;;;;;;;;21.10;89.50;;;;;;5094568;28;19962;-51
2022/11/29 02:24:10;;;;;;;;;;;21.10;89.50;;;;;;5075814;28;20310;-50
2022/11/29 02:26:38;;;;;;;;;;;21.10;89.50;;;;;;5094413;28;19922;-50
2022/11/29 02:29:09;;;;;;;;;;;21.10;89.60;;;;;;5094181;28;19908;-50
2022/11/29 02:31:53;;;;;;;;;;;21.10;89.40;;;;;;5094119;28;19920;-50
2022/11/29 02:34:47;;;;;;;;;;;21.10;89.50;;;;;;5075347;28;20328;-48
2022/11/29 02:37:19;;;;;;;;;;;21.10;89.60;;;;;;5094784;28;19908;-50
2022/11/29 02:39:44;;;;;;;;;;;21.10;89.70;;;;;;5094407;28;20049;-50
2022/11/29 02:42:20;;;;;;;;;;;21.10;89.60;;;;;;5094009;28;20376;-51
2022/11/29 02:44:51;;;;;;;;;;;21.10;90.00;;;;;;5092296;28;20350;-49
2022/11/29 02:47:35;;;;;;;;;;;21.10;89.60;;;;;;5095252;28;20364;-52
2022/11/29 02:50:07;;;;;;;;;;;21.10;89.60;;;;;;5091575;28;19912;-48
2022/11/29 02:52:41;;;;;;;;;;;21.10;89.60;;;;;;5094140;28;19923;-47
2022/11/29 02:55:18;;;;;;;;;;;21.10;89.40;;;;;;5093472;28;20416;-48
2022/11/29 02:58:05;;;;;;;;;;;21.20;89.30;;;;;;5080592;28;20309;-48
2022/11/29 03:00:33;;;;;;;;;;;21.20;89.20;;;;;;5097940;28;19919;-49
2022/11/29 03:03:04;;;;;;;;;;;21.20;89.20;;;;;;5097935;28;19912;-52
2022/11/29 03:05:30;;;;;;;;;;;21.20;89.20;;;;;;5097307;28;19908;-49
2022/11/29 03:08:10;;;;;;;;;;;21.20;89.10;;;;;;5097846;28;19938;-50
2022/11/29 03:10:54;;;;;;;;;;;21.20;89.10;;;;;;5097286;28;19924;-47
2022/11/29 03:13:37;;;;;;;;;;;21.20;89.00;;;;;;5079827;28;19908;-51
2022/11/29 03:16:26;;;;;;;;;;;21.20;89.00;;;;;;5078848;28;19912;-51
2022/11/29 03:18:54;;;;;;;;;;;21.30;89.10;;;;;;5066435;28;19948;-50
2022/11/29 03:21:26;;;;;;;;;;;21.20;89.20;;;;;;5079784;28;19908;-50
2022/11/29 03:23:53;;;;;;;;;;;21.20;89.20;;;;;;5097626;28;19962;-50
2022/11/29 03:26:22;;;;;;;;;;;21.20;89.30;;;;;;5097091;28;20332;-48
2022/11/29 03:28:55;;;;;;;;;;;21.20;89.30;;;;;;5097813;28;19915;-48
2022/11/29 03:31:33;;;;;;;;;;;21.10;89.40;;;;;;5097366;28;20010;-48
2022/11/29 03:34:07;;;;;;;;;;;21.10;89.40;;;;;;5097792;28;19909;-51
2022/11/29 03:36:40;;;;;;;;;;;21.10;89.20;;;;;;5096305;28;19912;-50
2022/11/29 03:39:08;;;;;;;;;;;21.20;89.30;;;;;;5097598;28;20370;-50
2022/11/29 03:41:40;;;;;;;;;;;21.20;89.30;;;;;;5097668;28;20334;-49
2022/11/29 03:44:15;;;;;;;;;;;21.20;89.30;;;;;;5079379;28;19912;-48
2022/11/29 03:46:46;;;;;;;;;;;21.20;89.30;;;;;;5077928;28;19957;-50
2022/11/29 03:49:30;;;;;;;;;;;21.20;89.20;;;;;;5097049;28;20354;-51
2022/11/29 03:52:14;;;;;;;;;;;21.20;89.30;;;;;;5097043;28;20312;-50
2022/11/29 03:54:53;;;;;;;;;;;21.30;89.30;;;;;;5097578;28;20418;-49
2022/11/29 03:57:20;;;;;;;;;;;21.30;89.30;;;;;;5096609;28;19956;-53
2022/11/29 04:00:01;;;;;;;;;;;21.30;89.10;;;;;;5097126;28;19908;-50
2022/11/29 04:02:34;;;;;;;;;;;21.30;89.00;;;;;;5097223;28;19908;-49
2022/11/29 04:05:18;;;;;;;;;;;21.30;88.90;;;;;;5097214;28;19943;-50
2022/11/29 04:07:46;;;;;;;;;;;21.30;88.90;;;;;;5095715;28;20290;-52
2022/11/29 04:10:12;;;;;;;;;;;21.30;89.00;;;;;;5096727;28;19961;-52
2022/11/29 04:12:59;;;;;;;;;;;21.30;89.00;;;;;;5096938;28;19928;-49
2022/11/29 04:15:34;;;;;;;;;;;21.30;88.80;;;;;;5096748;28;20353;-49
2022/11/29 04:18:05;;;;;;;;;;;21.40;88.90;;;;;;5096075;28;19912;-53
2022/11/29 04:20:31;;;;;;;;;;;21.40;88.80;;;;;;5096813;28;19912;-50
2022/11/29 04:23:11;;;;;;;;;;;21.40;88.80;;;;;;5096772;28;19916;-48
2022/11/29 04:26:04;;;;;;;;;;;21.40;88.80;;;;;;5096448;28;19908;-50
2022/11/29 04:28:29;;;;;;;;;;;21.40;88.80;;;;;;5096113;28;19995;-48
2022/11/29 04:31:09;;;;;;;;;;;21.40;88.80;;;;;;5096167;28;20003;-52
2022/11/29 04:33:48;;;;;;;;;;;21.40;89.00;;;;;;5096372;28;19908;-51
2022/11/29 04:36:16;;;;;;;;;;;21.30;87.50;;;;;;5096219;28;19908;-48
2022/11/29 04:39:07;;;;;;;;;;;21.20;85.50;;;;;;5096072;28;20432;-52
2022/11/29 04:41:39;;;;;;;;;;;21.30;87.50;;;;;;5040182;28;19947;-50
2022/11/29 04:44:04;;;;;;;;;;;21.30;88.20;;;;;;5096069;28;19916;-51
2022/11/29 04:46:48;;;;;;;;;;;21.30;88.60;;;;;;5095115;28;19912;-51
2022/11/29 04:49:21;;;;;;;;;;;21.30;89.10;;;;;;5096205;28;19912;-48
2022/11/29 04:51:58;;;;;;;;;;;21.20;88.70;;;;;;5078044;28;19916;-48
2022/11/29 04:54:24;;;;;;;;;;;21.20;88.80;;;;;;5095818;28;19915;-51
2022/11/29 04:56:51;;;;;;;;;;;21.20;89.00;;;;;;5095313;28;19912;-50
2022/11/29 04:59:22;;;;;;;;;;;21.20;89.00;;;;;;5096054;28;19974;-51
2022/11/29 05:01:54;;;;;;;;;;;21.20;89.10;;;;;;5095979;28;19908;-50
2022/11/29 05:04:27;;;;;;;;;;;21.20;89.10;;;;;;5095925;28;19908;-52
2022/11/29 05:07:13;;;;;;;;;;;21.20;89.10;;;;;;5095091;28;20342;-50
2022/11/29 05:09:47;;;;;;;;;;;21.20;89.30;;;;;;5095638;28;20334;-49
2022/11/29 05:12:27;;;;;;;;;;;21.20;89.20;;;;;;5095856;28;19963;-51
2022/11/29 05:15:12;;;;;;;;;;;21.20;89.30;;;;;;5095256;28;20301;-48
2022/11/29 05:17:54;;;;;;;;;;;21.20;89.30;;;;;;5093984;28;20385;-51
2022/11/29 05:20:28;;;;;;;;;;;21.20;89.30;;;;;;5095081;28;19908;-50
2022/11/29 05:23:04;;;;;;;;;;;21.20;89.40;;;;;;5095193;28;19908;-49
2022/11/29 05:25:33;;;;;;;;;;;21.20;89.30;;;;;;5095543;28;19915;-49
2022/11/29 05:28:08;;;;;;;;;;;21.20;89.20;;;;;;5094657;28;19912;-48
2022/11/29 05:30:53;;;;;;;;;;;21.20;89.10;;;;;;5095390;28;19909;-49
2022/11/29 05:33:27;;;;;;;;;;;21.20;89.20;;;;;;5095283;28;19931;-50
2022/11/29 05:36:02;;;;;;;;;;;21.20;89.20;;;;;;5095424;28;19915;-50
2022/11/29 05:38:34;;;;;;;;;;;21.20;89.00;;;;;;5075852;28;20266;-50
2022/11/29 05:41:11;;;;;;;;;;;21.30;89.10;;;;;;5094739;28;20354;-52
2022/11/29 05:43:36;;;;;;;;;;;21.30;89.30;;;;;;5094943;28;19908;-51
2022/11/29 05:46:21;;;;;;;;;;;21.20;88.90;;;;;;5093842;28;19936;-49
2022/11/29 05:48:53;;;;;;;;;;;21.30;89.10;;;;;;5095083;28;19909;-49
2022/11/29 05:51:20;;;;;;;;;;;21.30;89.30;;;;;;5091422;28;19920;-48
2022/11/29 05:53:50;;;;;;;;;;;21.20;88.90;;;;;;5093579;28;19933;-51
2022/11/29 05:56:27;;;;;;;;;;;21.20;89.10;;;;;;5093466;28;19991;-49
2022/11/29 05:58:56;;;;;;;;;;;21.30;89.10;;;;;;5093128;28;19909;-52
2022/11/29 06:01:23;;;;;;;;;;;21.30;89.00;;;;;;5091537;28;20439;-50
2022/11/29 06:04:12;;;;;;;;;;;21.20;89.00;;;;;;5093097;28;19916;-52
2022/11/29 06:06:40;;;;;;;;;;;21.20;89.00;;;;;;5086522;28;19908;-53
2022/11/29 06:09:15;;;;;;;;;;;21.20;89.00;;;;;;5094418;28;19908;-48
2022/11/29 06:11:43;;;;;;;;;;;21.20;89.00;;;;;;5092913;28;19927;-54
2022/11/29 06:14:27;;;;;;;;;;;21.20;89.10;;;;;;5094525;28;20354;-47
2022/11/29 06:16:55;;;;;;;;;;;21.20;88.60;;;;;;5106674;28;19931;-48
2022/11/29 06:19:38;;;;;;;;;;;21.20;88.30;;;;;;5107500;28;20373;-47
2022/11/29 06:22:06;;;;;;;;;;;21.20;88.10;;;;;;5093251;28;19915;-51
2022/11/29 06:24:41;;;;;;;;;;;21.20;87.80;;;;;;5092409;28;20366;-50
2022/11/29 06:27:25;;;;;;;;;;;21.20;89.40;;;;;;5094568;28;19926;-53
2022/11/29 06:29:55;;;;;;;;;;;21.10;87.30;;;;;;5096708;28;19926;-51
2022/11/29 06:32:30;;;;;;;;;;;21.10;88.00;;;;;;5094689;28;19970;-51
2022/11/29 06:35:01;;;;;;;;;;;21.20;88.70;;;;;;5094164;28;19912;-49
2022/11/29 06:37:29;;;;;;;;;;;21.20;89.00;;;;;;5092970;28;19965;-48
2022/11/29 06:39:55;;;;;;;;;;;21.20;89.00;;;;;;5107945;28;19914;-50
2022/11/29 06:42:20;;;;;;;;;;;21.20;88.40;;;;;;5087714;28;19925;-50
2022/11/29 06:44:46;;;;;;;;;;;21.30;88.70;;;;;;5090209;28;19912;-48
2022/11/29 06:47:11;;;;;;;;;;;21.30;88.80;;;;;;5089607;28;20003;-61
2022/11/29 06:49:48;;;;;;;;;;;21.30;89.00;;;;;;5097422;28;19907;-62
2022/11/29 06:52:16;;;;;;;;;;;21.30;89.20;;;;;;5112114;28;20012;-62
2022/11/29 06:54:49;;;;;;;;;;;21.30;89.10;;;;;;5094181;28;20299;-59
2022/11/29 06:57:15;;;;;;;;;;;21.40;89.10;;;;;;5110030;28;19907;-58
2022/11/29 06:59:58;;;;;;;;;;;21.40;89.00;;;;;;5114073;28;19904;-61
2022/11/29 07:02:41;;;;;;;;;;;21.40;89.00;;;;;;5113866;28;20049;-60
2022/11/29 07:05:06;;;;;;;;;;;21.40;89.00;;;;;;5110760;28;19915;-59
2022/11/29 07:07:33;;;;;;;;;;;21.40;89.10;;;;;;5104063;28;19908;-58
2022/11/29 07:10:00;;;;;;;;;;;21.40;89.20;;;;;;5075660;28;20281;-56
2022/11/29 07:12:26;;;;;;;;;;;21.40;89.20;;;;;;5092560;28;20014;-54
2022/11/29 07:14:51;;;;;;;;;;;21.40;89.30;;;;;;5091740;28;20345;-62
2022/11/29 07:17:24;;;;;;;;;;;21.40;89.40;;;;;;5092777;28;19999;-66
2022/11/29 07:19:57;;;;;;;;;;;21.40;89.50;;;;;;5093205;28;19907;-64
2022/11/29 07:22:23;;;;;;;;;;;21.40;89.50;;;;;;5091090;28;20346;-62
2022/11/29 07:24:51;;;;;;;;;;;21.40;89.60;;;;;;5108635;28;20090;-58
2022/11/29 07:27:25;;;;;;;;;;;21.40;89.80;;;;;;5106843;28;19912;-59
2022/11/29 07:30:13;;;;;;;;;;;21.40;89.80;;;;;;5110914;28;19920;-61
2022/11/29 07:32:43;;;;;;;;;;;21.40;90.00;;;;;;5106726;28;19916;-57
2022/11/29 07:35:14;;;;;;;;;;;21.40;89.80;;;;;;5092672;28;20344;-58
2022/11/29 07:37:45;;;;;;;;;;;21.40;89.90;;;;;;5092026;28;19920;-57
2022/11/29 07:40:17;;;;;;;;;;;21.40;89.80;;;;;;5100866;28;19947;-56
2022/11/29 07:43:01;;;;;;;;;;;21.40;89.90;;;;;;5089552;28;19908;-57
2022/11/29 07:45:27;;;;;;;;;;;21.40;89.90;;;;;;5100370;28;19914;-62
2022/11/29 07:47:52;;;;;;;;;;;21.40;89.90;;;;;;5106453;28;19908;-51
2022/11/29 07:50:18;;;;;;;;;;;21.30;89.80;;;;;;5117979;28;19994;-53
2022/11/29 07:52:43;;;;;;;;;;;21.40;89.80;;;;;;5098387;28;20326;-53
2022/11/29 07:55:28;;;;;;;;;;;21.40;89.70;;;;;;5085392;28;20429;-56
2022/11/29 07:57:54;;;;;;;;;;;21.40;89.60;;;;;;5109465;28;19908;-61
2022/11/29 08:00:20;;;;;;;;;;;21.50;89.60;;;;;;5101794;28;20364;-61
2022/11/29 08:02:46;;;;;;;;;;;21.50;89.50;;;;;;5109456;28;19934;-62
2022/11/29 08:05:11;;;;;;;;;;;21.50;89.60;;;;;;5097292;28;19954;-66
2022/11/29 08:07:37;;;;;;;;;;;21.50;89.60;;;;;;5117242;28;19911;-61
2022/11/29 08:10:04;;;;;;;;;;;21.50;89.60;;;;;;5108914;28;19920;-62
2022/11/29 08:12:29;;;;;;;;;;;21.50;89.80;;;;;;5113705;28;19923;-63
2022/11/29 08:14:54;;;;;;;;;;;21.40;89.90;;;;;;5099695;28;20418;-62
2022/11/29 08:17:20;;;;;;;;;;;21.50;90.00;;;;;;5098424;28;19995;-63
2022/11/29 08:19:46;;;;;;;;;;;21.40;90.00;;;;;;5108483;28;20334;-61
2022/11/29 08:22:11;;;;;;;;;;;21.40;90.00;;;;;;5112876;28;19949;-61
2022/11/29 08:24:37;;;;;;;;;;;21.40;90.10;;;;;;5101906;28;19908;-65
2022/11/29 08:27:02;;;;;;;;;;;21.40;90.10;;;;;;5095703;28;20270;-62
2022/11/29 08:29:28;;;;;;;;;;;21.40;90.10;;;;;;5111510;28;19907;-62
2022/11/29 08:31:53;;;;;;;;;;;21.40;90.10;;;;;;5087096;28;19916;-62
2022/11/29 08:34:20;;;;;;;;;;;21.40;90.10;;;;;;5108467;28;19995;-65
2022/11/29 08:36:45;;;;;;;;;;;21.40;90.10;;;;;;5105724;28;19912;-62
2022/11/29 08:39:11;;;;;;;;;;;21.40;90.10;;;;;;5107743;28;19915;-61
2022/11/29 08:41:36;;;;;;;;;;;21.40;90.10;;;;;;5090624;28;19961;-62
2022/11/29 08:44:03;;;;;;;;;;;21.40;90.20;;;;;;5101648;28;19930;-63
2022/11/29 08:47:34;;;;;;;;;;;21.40;90.20;;;;;;5096193;28;19908;-65
2022/11/29 08:49:14;;;;;;;;;;;21.40;90.40;;;;;;5097338;28;20243;-62
2022/11/29 08:51:40;;;;;;;;;;;21.50;90.20;;;;;;5116293;28;20006;-62
2022/11/29 08:54:05;;;;;;;;;;;21.40;90.20;;;;;;5106306;28;20302;-59
2022/11/29 08:56:30;;;;;;;;;;;21.40;90.20;;;;;;5098059;28;19952;-61
2022/11/29 08:58:56;;;;;;;;;;;21.40;90.30;;;;;;5109805;28;19915;-61
2022/11/29 09:01:21;;;;;;;;;;;21.40;90.30;;;;;;5083766;28;19916;-60
2022/11/29 09:03:59;;;;;;;;;;;21.40;90.20;;;;;;5096876;28;20482;-57
2022/11/29 09:06:30;;;;;;;;;;;21.50;90.10;;;;;;5097982;28;19904;-61
2022/11/29 09:08:57;;;;;;;;;;;21.50;90.10;;;;;;5104731;28;20264;-62
2022/11/29 09:11:23;;;;;;;;;;;21.40;86.20;;;;;;5107911;28;19920;-61
2022/11/29 09:13:50;;;;;;;;;;;21.40;88.70;;;;;;5100391;28;20394;-61
2022/11/29 09:16:17;;;;;;;;;;;21.50;89.80;;;;;;5109288;28;20075;-60
2022/11/29 09:18:42;;;;;;;;;;;21.50;90.00;;;;;;5092825;28;19990;-56
2022/11/29 09:21:09;;;;;;;;;;;21.50;90.00;;;;;;5111818;28;20045;-57
2022/11/29 09:23:35;;;;;;;;;;;21.40;90.10;;;;;;5108262;28;20243;-55
2022/11/29 09:26:01;;;;;;;;;;;21.40;90.00;;;;;;5108075;28;19915;-59
2022/11/29 09:28:27;;;;;;;;;;;21.40;90.10;;;;;;5110561;28;20414;-58
2022/11/29 09:30:53;;;;;;;;;;;21.50;90.00;;;;;;5102254;28;20014;-57
2022/11/29 09:33:18;;;;;;;;;;;21.50;90.00;;;;;;5103371;28;19911;-60
2022/11/29 09:35:44;;;;;;;;;;;21.50;90.00;;;;;;5090697;28;19912;-56
2022/11/29 09:38:10;;;;;;;;;;;21.50;90.00;;;;;;5090247;28;20321;-57
2022/11/29 09:40:42;;;;;;;;;;;21.50;90.00;;;;;;5108875;28;19911;-62
2022/11/29 09:43:34;;;;;;;;;;;21.50;90.00;;;;;;5097762;28;20010;-62
2022/11/29 09:46:16;;;;;;;;;;;21.50;90.00;;;;;;5072615;28;19907;-61
2022/11/29 09:49:01;;;;;;;;;;;21.50;90.00;;;;;;5073437;28;19966;-56
2022/11/29 09:51:35;;;;;;;;;;;21.60;90.00;;;;;;5079621;28;20383;-58
2022/11/29 09:54:17;;;;;;;;;;;21.60;90.00;;;;;;5101776;28;19907;-55
2022/11/29 09:56:45;;;;;;;;;;;21.60;90.00;;;;;;5101997;28;19904;-55
2022/11/29 09:59:12;;;;;;;;;;;21.60;90.00;;;;;;5076517;28;19904;-60
2022/11/29 10:01:44;;;;;;;;;;;21.60;90.00;;;;;;5082860;28;19929;-59
2022/11/29 10:04:18;;;;;;;;;;;21.60;90.00;;;;;;5094655;28;19908;-56
2022/11/29 10:07:00;;;;;;;;;;;21.60;89.90;;;;;;5104104;28;20373;-57
2022/11/29 10:09:29;;;;;;;;;;;21.60;89.90;;;;;;5114494;28;19960;-57
2022/11/29 10:11:54;;;;;;;;;;;21.60;90.20;;;;;;5110107;28;20002;-57
2022/11/29 10:14:23;;;;;;;;;;;21.60;90.00;;;;;;5099753;28;19991;-57
2022/11/29 10:16:51;;;;;;;;;;;21.60;90.00;;;;;;5111546;28;19908;-56
2022/11/29 10:19:28;;;;;;;;;;;21.60;90.00;;;;;;5111300;28;21415;-57
2022/11/29 10:22:19;;;;;;;;;;;21.60;90.00;;;;;;5112406;28;19908;-58
2022/11/29 10:24:45;;;;;;;;;;;21.60;90.00;;;;;;5089656;28;19908;-62
2022/11/29 10:27:13;;;;;;;;;;;21.60;90.00;;;;;;5106904;28;19907;-60
2022/11/29 10:29:39;;;;;;;;;;;21.60;90.00;;;;;;5110330;28;19954;-61
2022/11/29 10:32:10;;;;;;;;;;;21.60;90.00;;;;;;5093816;28;20493;-59
2022/11/29 10:34:35;;;;;;;;;;;21.70;90.10;;;;;;5097615;28;19922;-55
2022/11/29 10:37:01;;;;;;;;;;;21.60;90.10;;;;;;5092978;28;20007;-57
2022/11/29 10:39:35;;;;;;;;;;;21.60;90.10;;;;;;5110761;28;19909;-60
2022/11/29 10:42:02;;;;;;;;;;;21.60;90.10;;;;;;5104651;28;19915;-61
2022/11/29 10:44:30;;;;;;;;;;;21.60;90.10;;;;;;5098834;28;20007;-60
2022/11/29 10:46:57;;;;;;;;;;;21.70;90.10;;;;;;5110295;28;20282;-60
2022/11/29 10:49:25;;;;;;;;;;;21.70;90.10;;;;;;5111825;28;20286;-61
2022/11/29 10:51:51;;;;;;;;;;;21.70;90.10;;;;;;5107583;28;19919;-61
2022/11/29 10:54:35;;;;;;;;;;;21.60;90.10;;;;;;5114233;28;19908;-60
2022/11/29 10:57:01;;;;;;;;;;;21.60;90.10;;;;;;5111487;28;20019;-60
2022/11/29 10:59:31;;;;;;;;;;;21.60;90.10;;;;;;5114053;28;19927;-60
2022/11/29 11:01:57;;;;;;;;;;;21.60;90.20;;;;;;5106236;28;19908;-59
2022/11/29 11:04:23;;;;;;;;;;;21.70;90.10;;;;;;5093680;28;19912;-61
2022/11/29 11:06:51;;;;;;;;;;;21.70;90.10;;;;;;5101236;28;19908;-61
2022/11/29 11:09:35;;;;;;;;;;;21.70;90.00;;;;;;5080752;28;19908;-58
2022/11/29 11:12:17;;;;;;;;;;;21.70;90.00;;;;;;5108084;28;20011;-58
2022/11/29 11:14:43;;;;;;;;;;;21.70;90.00;;;;;;5114292;28;19999;-60
2022/11/29 11:17:25;;;;;;;;;;;21.70;90.00;;;;;;5110134;28;19939;-59
2022/11/29 11:19:56;;;;;;;;;;;21.80;90.10;;;;;;5096904;28;19909;-61
2022/11/29 11:22:22;;;;;;;;;;;21.70;90.10;;;;;;5085023;28;20247;-59
2022/11/29 11:24:55;;;;;;;;;;;21.70;90.20;;;;;;5090218;28;20352;-57
2022/11/29 11:27:27;;;;;;;;;;;21.70;90.20;;;;;;5110280;28;19910;-54
2022/11/29 11:29:53;;;;;;;;;;;21.70;90.20;;;;;;5114101;28;20023;-59
2022/11/29 11:32:18;;;;;;;;;;;21.70;90.20;;;;;;5104161;28;20375;-59
2022/11/29 11:34:52;;;;;;;;;;;21.70;89.50;;;;;;5100317;28;19916;-57
2022/11/29 11:37:20;;;;;;;;;;;21.70;90.00;;;;;;5097363;28;19966;-57
2022/11/29 11:39:46;;;;;;;;;;;21.70;90.00;;;;;;5079569;28;19980;-54
2022/11/29 11:44:58;;;;;;;;;;;21.80;90.00;;;;;;5096390;28;20025;-56
2022/11/29 11:47:28;;;;;;;;;;;21.80;90.00;;;;;;5096656;28;20371;-56
2022/11/29 11:50:03;;;;;;;;;;;21.80;89.90;;;;;;5096686;28;20007;-56
2022/11/29 11:52:28;;;;;;;;;;;21.80;90.00;;;;;;5095338;28;19923;-57
2022/11/29 11:54:56;;;;;;;;;;;21.80;89.90;;;;;;5096886;28;19912;-57
2022/11/29 11:57:23;;;;;;;;;;;21.80;89.90;;;;;;5108858;28;20278;-58
2022/11/29 11:59:50;;;;;;;;;;;21.80;89.80;;;;;;5102353;28;19912;-58
2022/11/29 12:02:34;;;;;;;;;;;21.80;89.70;;;;;;5079263;28;20007;-59
2022/11/29 12:05:01;;;;;;;;;;;21.80;89.60;;;;;;5083406;28;19915;-61
2022/11/29 12:07:32;;;;;;;;;;;21.80;89.70;;;;;;5094767;28;19918;-61
2022/11/29 12:10:05;;;;;;;;;;;21.80;89.50;;;;;;5104260;28;20290;-58
2022/11/29 12:12:37;;;;;;;;;;;21.80;89.50;;;;;;5117126;28;20290;-57
2022/11/29 12:15:06;;;;;;;;;;;21.80;89.50;;;;;;5110895;28;19918;-56
2022/11/29 12:17:47;;;;;;;;;;;21.80;89.50;;;;;;5107359;28;21193;-57
2022/11/29 12:20:28;;;;;;;;;;;21.80;89.50;;;;;;5096958;28;19954;-56
2022/11/29 12:22:56;;;;;;;;;;;21.80;89.50;;;;;;5096804;28;20002;-61
2022/11/29 12:25:28;;;;;;;;;;;21.80;89.30;;;;;;5080129;28;19916;-62
2022/11/29 12:27:54;;;;;;;;;;;21.80;89.60;;;;;;5116716;28;19908;-60
2022/11/29 12:30:19;;;;;;;;;;;21.80;89.60;;;;;;5095621;28;19914;-61
2022/11/29 12:32:52;;;;;;;;;;;21.80;89.60;;;;;;5100628;28;19947;-61
2022/11/29 12:35:33;;;;;;;;;;;21.80;89.60;;;;;;5104902;28;19999;-60
2022/11/29 12:38:11;;;;;;;;;;;21.80;89.70;;;;;;5116660;28;20330;-60
2022/11/29 12:40:45;;;;;;;;;;;21.80;89.80;;;;;;5113668;28;19907;-61
2022/11/29 12:43:25;;;;;;;;;;;21.80;89.80;;;;;;5095202;28;19908;-61
2022/11/29 12:46:10;;;;;;;;;;;21.80;89.90;;;;;;5105253;28;19908;-63
2022/11/29 12:48:59;;;;;;;;;;;21.80;90.00;;;;;;5112644;28;19912;-55
2022/11/29 12:51:28;;;;;;;;;;;21.80;89.90;;;;;;5089229;28;19954;-64
2022/11/29 12:54:12;;;;;;;;;;;21.80;89.90;;;;;;5106874;28;19960;-60
2022/11/29 12:56:44;;;;;;;;;;;21.80;90.00;;;;;;5099539;28;20464;-54
2022/11/29 12:59:24;;;;;;;;;;;21.80;90.00;;;;;;5095922;28;19998;-60
2022/11/29 13:01:49;;;;;;;;;;;21.80;90.00;;;;;;5077094;28;19909;-59
2022/11/29 13:04:16;;;;;;;;;;;21.80;90.10;;;;;;5089257;28;19912;-61
2022/11/29 13:06:41;;;;;;;;;;;21.80;90.10;;;;;;5107088;28;19908;-55
2022/11/29 13:09:06;;;;;;;;;;;21.80;90.10;;;;;;5114551;28;19904;-54
2022/11/29 13:11:35;;;;;;;;;;;21.80;90.10;;;;;;5111451;28;19919;-56
2022/11/29 13:14:06;;;;;;;;;;;21.80;90.10;;;;;;5111319;28;19961;-58
2022/11/29 13:16:34;;;;;;;;;;;21.80;90.10;;;;;;5101311;28;20423;-57
2022/11/29 13:19:19;;;;;;;;;;;21.80;90.10;;;;;;5095528;28;19918;-59
2022/11/29 13:21:44;;;;;;;;;;;21.80;90.10;;;;;;5113800;28;19951;-61
2022/11/29 13:24:12;;;;;;;;;;;21.80;90.10;;;;;;5091922;28;19960;-60
2022/11/29 13:26:38;;;;;;;;;;;21.80;90.20;;;;;;5073799;28;19916;-60
2022/11/29 13:29:05;;;;;;;;;;;21.80;90.20;;;;;;5108365;28;19933;-57
2022/11/29 13:31:31;;;;;;;;;;;21.80;90.20;;;;;;5085839;28;20333;-58
2022/11/29 13:33:56;;;;;;;;;;;21.70;90.20;;;;;;5115710;28;19972;-61
2022/11/29 13:36:33;;;;;;;;;;;21.70;90.20;;;;;;5100465;28;20354;-62
2022/11/29 13:39:13;;;;;;;;;;;21.70;90.20;;;;;;5115075;28;19947;-61
2022/11/29 13:41:39;;;;;;;;;;;21.70;90.20;;;;;;5108314;28;19947;-63
2022/11/29 13:44:10;;;;;;;;;;;21.70;90.30;;;;;;5097569;28;19927;-57
2022/11/29 13:47:05;;;;;;;;;;;21.70;90.20;;;;;;5097858;28;20255;-60
2022/11/29 13:49:49;;;;;;;;;;;21.70;90.30;;;;;;5088623;28;19915;-60
2022/11/29 13:52:25;;;;;;;;;;;21.70;90.30;;;;;;5114980;28;20052;-60
2022/11/29 13:55:10;;;;;;;;;;;21.70;90.30;;;;;;5085775;28;20002;-59
2022/11/29 13:57:54;;;;;;;;;;;21.70;90.30;;;;;;5098667;28;20272;-60
2022/11/29 14:00:34;;;;;;;;;;;21.70;90.30;;;;;;5105150;28;19908;-61
2022/11/29 14:03:19;;;;;;;;;;;21.70;90.30;;;;;;5103451;28;19908;-61
2022/11/29 14:05:45;;;;;;;;;;;21.70;90.30;;;;;;5104521;28;19920;-60
2022/11/29 14:08:29;;;;;;;;;;;21.70;90.30;;;;;;5093258;28;20365;-63
2022/11/29 14:10:57;;;;;;;;;;;21.70;90.40;;;;;;5102933;28;19923;-60
2022/11/29 14:13:25;;;;;;;;;;;21.70;90.40;;;;;;5090256;28;19960;-59
2022/11/29 14:15:53;;;;;;;;;;;21.70;90.40;;;;;;5110696;28;19932;-57
2022/11/29 14:18:39;;;;;;;;;;;21.70;90.40;;;;;;5094413;28;21281;-59
2022/11/29 14:21:05;;;;;;;;;;;21.70;90.40;;;;;;5091493;28;19912;-60
2022/11/29 14:23:31;;;;;;;;;;;21.70;90.40;;;;;;5091432;28;20402;-57
2022/11/29 14:25:56;;;;;;;;;;;21.70;90.40;;;;;;5093902;28;19908;-55
2022/11/29 14:28:22;;;;;;;;;;;21.60;90.40;;;;;;5108110;28;19912;-55
2022/11/29 14:30:51;;;;;;;;;;;21.70;90.40;;;;;;5086519;28;19944;-56
2022/11/29 14:33:20;;;;;;;;;;;21.70;90.30;;;;;;5099526;28;20011;-60
2022/11/29 14:35:48;;;;;;;;;;;21.70;90.30;;;;;;5102767;28;19919;-57
2022/11/29 14:38:32;;;;;;;;;;;21.70;90.30;;;;;;5106298;28;19912;-55
2022/11/29 14:41:05;;;;;;;;;;;21.60;90.40;;;;;;5113153;28;19911;-59
2022/11/29 14:43:38;;;;;;;;;;;21.70;90.40;;;;;;5101472;28;19998;-57
2022/11/29 14:46:06;;;;;;;;;;;21.70;90.40;;;;;;5101833;28;20386;-61